sensor_id;sensor_type;location;lat;lon;timestamp;temperature;humidity
15357;DHT22;7778;48.792;9.260;2023-03-01T00:01:56;-0.30;99.90
15357;DHT22;7778;48.792;9.260;2023-03-01T00:04:42;-0.30;99.90
15357;DHT22;7778;48.792;9.260;2023-03-01T00:07:27;-0.20;99.90
15357;DHT22;7778;48.792;9.260;2023-03-01T00:10:13;-0.20;99.90
15357;DHT22;7778;48.792;9.260;2023-03-01T00:12:59;-0.30;99.90
15357;DHT22;7778;48.792;9.260;2023-03-01T00:15:44;-0.20;99.90
15357;DHT22;7778;48.792;9.260;2023-03-01T00:18:32;-0.30;99.90
15357;DHT22;7778;48.792;9.260;2023-03-01T00:21:18;-0.40;99.90
15357;DHT22;7778;48.792;9.260;2023-03-01T00:24:05;-0.50;99.90
15357;DHT22;7778;48.792;9.260;2023-03-01T00:26:53;-0.40;99.90
15357;DHT22;7778;48.792;9.260;2023-03-01T00:29:40;-0.60;99.90
15357;DHT22;7778;48.792;9.260;2023-03-01T00:32:26;-0.60;99.90
15357;DHT22;7778;48.792;9.260;2023-03-01T00:35:13;-0.60;99.90
15357;DHT22;7778;48.792;9.260;2023-03-01T00:37:59;-0.60;99.90
15357;DHT22;7778;48.792;9.260;2023-03-01T00:40:45;-0.70;99.90
15357;DHT22;7778;48.792;9.260;2023-03-01T00:43:31;-0.70;99.90
15357;DHT22;7778;48.792;9.260;2023-03-01T00:46:21;-0.60;99.90
15357;DHT22;7778;48.792;9.260;2023-03-01T00:49:08;-0.60;99.90
15357;DHT22;7778;48.792;9.260;2023-03-01T00:51:55;-0.60;99.90
15357;DHT22;7778;48.792;9.260;2023-03-01T00:54:41;-0.60;99.90
15357;DHT22;7778;48.792;9.260;2023-03-01T00:57:27;-0.70;99.90
15357;DHT22;7778;48.792;9.260;2023-03-01T01:00:12;-0.60;99.90
15357;DHT22;7778;48.792;9.260;2023-03-01T01:02:59;-0.70;99.90
15357;DHT22;7778;48.792;9.260;2023-03-01T01:05:44;-0.70;99.90
15357;DHT22;7778;48.792;9.260;2023-03-01T01:08:31;-0.70;99.90
15357;DHT22;7778;48.792;9.260;2023-03-01T01:11:19;-0.70;99.90
15357;DHT22;7778;48.792;9.260;2023-03-01T01:14:04;-0.70;99.90
15357;DHT22;7778;48.792;9.260;2023-03-01T01:16:50;-0.60;99.90
15357;DHT22;7778;48.792;9.260;2023-03-01T01:19:35;-0.70;99.90
15357;DHT22;7778;48.792;9.260;2023-03-01T01:25:05;-0.70;99.90
15357;DHT22;7778;48.792;9.260;2023-03-01T01:35:51;-0.80;99.90
15357;DHT22;7778;48.792;9.260;2023-03-01T01:38:38;-0.90;99.90
15357;DHT22;7778;48.792;9.260;2023-03-01T01:41:28;-1.00;99.90
15357;DHT22;7778;48.792;9.260;2023-03-01T01:44:17;-1.00;99.90
15357;DHT22;7778;48.792;9.260;2023-03-01T01:47:06;-1.00;99.90
15357;DHT22;7778;48.792;9.260;2023-03-01T01:49:54;-1.10;99.90
15357;DHT22;7778;48.792;9.260;2023-03-01T01:52:41;-1.10;99.90
15357;DHT22;7778;48.792;9.260;2023-03-01T01:55:27;-1.10;99.90
15357;DHT22;7778;48.792;9.260;2023-03-01T01:58:18;-0.90;99.90
15357;DHT22;7778;48.792;9.260;2023-03-01T02:01:05;-0.80;99.90
15357;DHT22;7778;48.792;9.260;2023-03-01T02:03:51;-0.70;99.90
15357;DHT22;7778;48.792;9.260;2023-03-01T02:06:45;-0.70;99.90
15357;DHT22;7778;48.792;9.260;2023-03-01T02:09:34;-0.70;99.90
15357;DHT22;7778;48.792;9.260;2023-03-01T02:15:16;-0.60;99.90
15357;DHT22;7778;48.792;9.260;2023-03-01T02:20:52;-0.50;99.90
15357;DHT22;7778;48.792;9.260;2023-03-01T02:23:46;-0.40;99.90
15357;DHT22;7778;48.792;9.260;2023-03-01T02:26:38;-0.20;99.90
15357;DHT22;7778;48.792;9.260;2023-03-01T02:29:28;-0.10;99.90
15357;DHT22;7778;48.792;9.260;2023-03-01T02:32:14;-0.10;99.90
15357;DHT22;7778;48.792;9.260;2023-03-01T02:35:01;0.00;99.90
15357;DHT22;7778;48.792;9.260;2023-03-01T02:37:50;-0.10;99.90
15357;DHT22;7778;48.792;9.260;2023-03-01T02:40:38;-0.20;99.90
15357;DHT22;7778;48.792;9.260;2023-03-01T02:43:29;-0.20;99.90
15357;DHT22;7778;48.792;9.260;2023-03-01T02:46:20;-0.20;99.90
15357;DHT22;7778;48.792;9.260;2023-03-01T02:49:18;-0.20;99.90
15357;DHT22;7778;48.792;9.260;2023-03-01T02:55:18;-0.20;99.90
15357;DHT22;7778;48.792;9.260;2023-03-01T02:58:04;-0.20;99.90
15357;DHT22;7778;48.792;9.260;2023-03-01T03:00:50;-0.10;99.90
15357;DHT22;7778;48.792;9.260;2023-03-01T03:03:38;-0.10;99.90
15357;DHT22;7778;48.792;9.260;2023-03-01T03:06:23;-0.10;99.90
15357;DHT22;7778;48.792;9.260;2023-03-01T03:09:08;-0.20;99.90
15357;DHT22;7778;48.792;9.260;2023-03-01T03:11:54;-0.10;99.90
15357;DHT22;7778;48.792;9.260;2023-03-01T03:14:40;0.00;99.90
15357;DHT22;7778;48.792;9.260;2023-03-01T03:17:25;0.00;99.90
15357;DHT22;7778;48.792;9.260;2023-03-01T03:20:15;0.00;99.90
15357;DHT22;7778;48.792;9.260;2023-03-01T03:23:02;0.00;99.90
15357;DHT22;7778;48.792;9.260;2023-03-01T03:25:49;0.00;99.90
15357;DHT22;7778;48.792;9.260;2023-03-01T03:28:35;0.00;99.90
15357;DHT22;7778;48.792;9.260;2023-03-01T03:31:24;0.00;99.90
15357;DHT22;7778;48.792;9.260;2023-03-01T03:34:09;-0.10;99.90
15357;DHT22;7778;48.792;9.260;2023-03-01T03:37:03;-0.10;99.90
15357;DHT22;7778;48.792;9.260;2023-03-01T03:40:10;0.00;99.90
15357;DHT22;7778;48.792;9.260;2023-03-01T03:42:59;0.00;99.90
15357;DHT22;7778;48.792;9.260;2023-03-01T03:45:46;-0.10;99.90
15357;DHT22;7778;48.792;9.260;2023-03-01T03:48:33;-0.10;99.90
15357;DHT22;7778;48.792;9.260;2023-03-01T03:51:19;-0.10;99.90
15357;DHT22;7778;48.792;9.260;2023-03-01T03:54:08;-0.10;99.90
15357;DHT22;7778;48.792;9.260;2023-03-01T03:56:54;-0.10;99.90
15357;DHT22;7778;48.792;9.260;2023-03-01T03:59:40;-0.10;99.90
15357;DHT22;7778;48.792;9.260;2023-03-01T04:02:25;-0.10;99.90
15357;DHT22;7778;48.792;9.260;2023-03-01T04:05:14;-0.10;99.90
15357;DHT22;7778;48.792;9.260;2023-03-01T04:08:01;-0.10;99.90
15357;DHT22;7778;48.792;9.260;2023-03-01T04:10:50;-0.10;99.90
15357;DHT22;7778;48.792;9.260;2023-03-01T04:13:37;-0.10;99.90
15357;DHT22;7778;48.792;9.260;2023-03-01T04:16:22;-0.10;99.90
15357;DHT22;7778;48.792;9.260;2023-03-01T04:19:08;-0.10;99.90
15357;DHT22;7778;48.792;9.260;2023-03-01T04:21:54;-0.10;99.90
15357;DHT22;7778;48.792;9.260;2023-03-01T04:24:39;-0.10;99.90
15357;DHT22;7778;48.792;9.260;2023-03-01T04:27:26;-0.10;99.90
15357;DHT22;7778;48.792;9.260;2023-03-01T04:30:12;-0.10;99.90
15357;DHT22;7778;48.792;9.260;2023-03-01T04:32:58;0.00;99.90
15357;DHT22;7778;48.792;9.260;2023-03-01T04:35:43;-0.10;99.90
15357;DHT22;7778;48.792;9.260;2023-03-01T04:38:29;0.00;99.90
15357;DHT22;7778;48.792;9.260;2023-03-01T04:41:16;0.00;99.90
15357;DHT22;7778;48.792;9.260;2023-03-01T04:44:04;0.10;99.90
15357;DHT22;7778;48.792;9.260;2023-03-01T04:46:49;0.20;99.90
15357;DHT22;7778;48.792;9.260;2023-03-01T04:49:35;0.20;99.90
15357;DHT22;7778;48.792;9.260;2023-03-01T04:52:21;0.10;99.90
15357;DHT22;7778;48.792;9.260;2023-03-01T04:55:07;0.20;99.90
15357;DHT22;7778;48.792;9.260;2023-03-01T04:57:54;0.20;99.90
15357;DHT22;7778;48.792;9.260;2023-03-01T05:00:41;0.20;99.90
15357;DHT22;7778;48.792;9.260;2023-03-01T05:03:27;0.20;99.90
15357;DHT22;7778;48.792;9.260;2023-03-01T05:06:13;0.20;99.90
15357;DHT22;7778;48.792;9.260;2023-03-01T05:08:59;0.20;99.90
15357;DHT22;7778;48.792;9.260;2023-03-01T05:11:45;0.20;99.90
15357;DHT22;7778;48.792;9.260;2023-03-01T05:14:30;0.20;99.90
15357;DHT22;7778;48.792;9.260;2023-03-01T05:17:17;0.20;99.90
15357;DHT22;7778;48.792;9.260;2023-03-01T05:20:03;0.40;99.90
15357;DHT22;7778;48.792;9.260;2023-03-01T05:22:55;0.20;99.90
15357;DHT22;7778;48.792;9.260;2023-03-01T05:25:42;0.30;99.90
15357;DHT22;7778;48.792;9.260;2023-03-01T05:28:28;0.30;99.90
15357;DHT22;7778;48.792;9.260;2023-03-01T05:31:14;0.20;99.90
15357;DHT22;7778;48.792;9.260;2023-03-01T05:34:00;0.30;99.90
15357;DHT22;7778;48.792;9.260;2023-03-01T05:36:46;0.30;99.90
15357;DHT22;7778;48.792;9.260;2023-03-01T05:39:31;0.30;99.90
15357;DHT22;7778;48.792;9.260;2023-03-01T05:42:17;0.30;99.90
15357;DHT22;7778;48.792;9.260;2023-03-01T05:45:03;0.30;99.90
15357;DHT22;7778;48.792;9.260;2023-03-01T05:47:53;0.30;99.90
15357;DHT22;7778;48.792;9.260;2023-03-01T05:50:42;0.30;99.90
15357;DHT22;7778;48.792;9.260;2023-03-01T05:53:29;0.30;99.90
15357;DHT22;7778;48.792;9.260;2023-03-01T05:56:14;0.30;99.90
15357;DHT22;7778;48.792;9.260;2023-03-01T05:59:00;0.40;99.90
15357;DHT22;7778;48.792;9.260;2023-03-01T06:01:47;0.40;99.90
15357;DHT22;7778;48.792;9.260;2023-03-01T06:04:32;0.30;99.90
15357;DHT22;7778;48.792;9.260;2023-03-01T06:07:19;0.30;99.90
15357;DHT22;7778;48.792;9.260;2023-03-01T06:10:07;0.30;99.90
15357;DHT22;7778;48.792;9.260;2023-03-01T06:12:54;0.30;99.90
15357;DHT22;7778;48.792;9.260;2023-03-01T06:15:39;0.30;99.90
15357;DHT22;7778;48.792;9.260;2023-03-01T06:18:25;0.30;99.90
15357;DHT22;7778;48.792;9.260;2023-03-01T06:21:11;0.30;99.90
15357;DHT22;7778;48.792;9.260;2023-03-01T06:23:57;0.30;99.90
15357;DHT22;7778;48.792;9.260;2023-03-01T06:26:43;0.20;99.90
15357;DHT22;7778;48.792;9.260;2023-03-01T06:29:28;0.20;99.90
15357;DHT22;7778;48.792;9.260;2023-03-01T06:32:14;0.10;99.90
15357;DHT22;7778;48.792;9.260;2023-03-01T06:35:00;0.10;99.90
15357;DHT22;7778;48.792;9.260;2023-03-01T06:37:46;0.10;99.90
15357;DHT22;7778;48.792;9.260;2023-03-01T06:40:33;0.10;99.90
15357;DHT22;7778;48.792;9.260;2023-03-01T06:43:20;0.10;99.90
15357;DHT22;7778;48.792;9.260;2023-03-01T06:46:06;0.20;99.90
15357;DHT22;7778;48.792;9.260;2023-03-01T06:48:51;0.20;99.90
15357;DHT22;7778;48.792;9.260;2023-03-01T06:51:37;0.00;99.90
15357;DHT22;7778;48.792;9.260;2023-03-01T06:54:22;-0.10;99.90
15357;DHT22;7778;48.792;9.260;2023-03-01T06:57:09;-0.10;99.90
15357;DHT22;7778;48.792;9.260;2023-03-01T06:59:55;-0.10;99.90
15357;DHT22;7778;48.792;9.260;2023-03-01T07:02:41;0.00;99.90
15357;DHT22;7778;48.792;9.260;2023-03-01T07:05:27;-0.10;99.90
15357;DHT22;7778;48.792;9.260;2023-03-01T07:08:13;0.00;99.90
15357;DHT22;7778;48.792;9.260;2023-03-01T07:10:59;0.00;99.90
15357;DHT22;7778;48.792;9.260;2023-03-01T07:13:47;-0.10;99.90
15357;DHT22;7778;48.792;9.260;2023-03-01T07:16:32;-0.10;99.90
15357;DHT22;7778;48.792;9.260;2023-03-01T07:19:18;-0.10;99.90
15357;DHT22;7778;48.792;9.260;2023-03-01T07:22:04;0.00;99.90
15357;DHT22;7778;48.792;9.260;2023-03-01T07:24:51;-0.20;99.90
15357;DHT22;7778;48.792;9.260;2023-03-01T07:27:37;-0.20;99.90
15357;DHT22;7778;48.792;9.260;2023-03-01T07:30:25;-0.10;99.90
15357;DHT22;7778;48.792;9.260;2023-03-01T07:33:12;-0.10;99.90
15357;DHT22;7778;48.792;9.260;2023-03-01T07:35:59;0.00;99.90
15357;DHT22;7778;48.792;9.260;2023-03-01T07:38:46;0.10;99.90
15357;DHT22;7778;48.792;9.260;2023-03-01T07:41:31;0.10;99.90
15357;DHT22;7778;48.792;9.260;2023-03-01T07:44:17;0.20;99.90
15357;DHT22;7778;48.792;9.260;2023-03-01T07:47:04;0.30;99.90
15357;DHT22;7778;48.792;9.260;2023-03-01T07:49:50;0.30;99.90
15357;DHT22;7778;48.792;9.260;2023-03-01T07:52:35;0.40;99.90
15357;DHT22;7778;48.792;9.260;2023-03-01T07:55:22;0.50;99.90
15357;DHT22;7778;48.792;9.260;2023-03-01T07:58:07;0.60;99.90
15357;DHT22;7778;48.792;9.260;2023-03-01T08:00:53;0.70;99.90
15357;DHT22;7778;48.792;9.260;2023-03-01T08:03:41;0.80;99.90
15357;DHT22;7778;48.792;9.260;2023-03-01T08:06:27;0.90;99.90
15357;DHT22;7778;48.792;9.260;2023-03-01T08:09:14;1.00;99.90
15357;DHT22;7778;48.792;9.260;2023-03-01T08:12:00;1.00;99.90
15357;DHT22;7778;48.792;9.260;2023-03-01T08:14:47;1.30;99.90
15357;DHT22;7778;48.792;9.260;2023-03-01T08:17:33;1.10;99.90
15357;DHT22;7778;48.792;9.260;2023-03-01T08:20:19;1.10;99.90
15357;DHT22;7778;48.792;9.260;2023-03-01T08:23:05;1.10;99.90
15357;DHT22;7778;48.792;9.260;2023-03-01T08:25:51;1.20;99.90
15357;DHT22;7778;48.792;9.260;2023-03-01T08:28:37;1.30;99.90
15357;DHT22;7778;48.792;9.260;2023-03-01T08:31:25;1.40;99.90
15357;DHT22;7778;48.792;9.260;2023-03-01T08:34:14;1.60;99.90
15357;DHT22;7778;48.792;9.260;2023-03-01T08:37:02;2.70;99.90
15357;DHT22;7778;48.792;9.260;2023-03-01T08:39:47;2.90;99.90
15357;DHT22;7778;48.792;9.260;2023-03-01T08:42:33;2.80;99.90
15357;DHT22;7778;48.792;9.260;2023-03-01T08:45:18;3.80;99.90
15357;DHT22;7778;48.792;9.260;2023-03-01T08:48:05;5.10;99.90
15357;DHT22;7778;48.792;9.260;2023-03-01T08:50:50;6.60;99.90
15357;DHT22;7778;48.792;9.260;2023-03-01T08:53:38;7.10;99.90
15357;DHT22;7778;48.792;9.260;2023-03-01T08:56:23;7.40;99.90
15357;DHT22;7778;48.792;9.260;2023-03-01T08:59:09;7.90;99.90
15357;DHT22;7778;48.792;9.260;2023-03-01T09:01:55;8.70;99.90
15357;DHT22;7778;48.792;9.260;2023-03-01T09:04:41;9.40;99.90
15357;DHT22;7778;48.792;9.260;2023-03-01T09:07:28;9.70;99.90
15357;DHT22;7778;48.792;9.260;2023-03-01T09:10:15;10.00;99.90
15357;DHT22;7778;48.792;9.260;2023-03-01T09:13:01;10.00;99.90
15357;DHT22;7778;48.792;9.260;2023-03-01T09:15:46;10.00;99.90
15357;DHT22;7778;48.792;9.260;2023-03-01T09:18:33;10.50;99.90
15357;DHT22;7778;48.792;9.260;2023-03-01T09:21:21;9.60;99.90
15357;DHT22;7778;48.792;9.260;2023-03-01T09:24:13;10.20;99.90
15357;DHT22;7778;48.792;9.260;2023-03-01T09:27:00;9.80;99.90
15357;DHT22;7778;48.792;9.260;2023-03-01T09:29:46;8.50;99.80
15357;DHT22;7778;48.792;9.260;2023-03-01T09:32:32;7.60;99.90
15357;DHT22;7778;48.792;9.260;2023-03-01T09:35:18;6.90;99.90
15357;DHT22;7778;48.792;9.260;2023-03-01T09:38:06;6.30;99.90
15357;DHT22;7778;48.792;9.260;2023-03-01T09:40:53;6.40;99.90
15357;DHT22;7778;48.792;9.260;2023-03-01T09:43:45;7.90;99.90
15357;DHT22;7778;48.792;9.260;2023-03-01T09:46:36;7.60;99.90
15357;DHT22;7778;48.792;9.260;2023-03-01T09:49:25;8.10;99.90
15357;DHT22;7778;48.792;9.260;2023-03-01T09:52:21;7.80;99.90
15357;DHT22;7778;48.792;9.260;2023-03-01T09:55:12;7.50;99.90
15357;DHT22;7778;48.792;9.260;2023-03-01T09:58:14;7.20;99.90
15357;DHT22;7778;48.792;9.260;2023-03-01T10:01:28;7.80;99.90
15357;DHT22;7778;48.792;9.260;2023-03-01T10:04:27;8.40;99.90
15357;DHT22;7778;48.792;9.260;2023-03-01T10:07:26;7.60;99.90
15357;DHT22;7778;48.792;9.260;2023-03-01T10:10:21;7.10;99.90
15357;DHT22;7778;48.792;9.260;2023-03-01T10:13:16;7.70;99.90
15357;DHT22;7778;48.792;9.260;2023-03-01T10:16:11;8.40;99.90
15357;DHT22;7778;48.792;9.260;2023-03-01T10:19:02;9.10;99.90
15357;DHT22;7778;48.792;9.260;2023-03-01T10:21:50;10.10;99.90
15357;DHT22;7778;48.792;9.260;2023-03-01T10:24:37;10.30;98.60
15357;DHT22;7778;48.792;9.260;2023-03-01T10:27:24;9.40;97.40
15357;DHT22;7778;48.792;9.260;2023-03-01T10:30:17;9.30;97.40
15357;DHT22;7778;48.792;9.260;2023-03-01T10:33:15;8.80;98.40
15357;DHT22;7778;48.792;9.260;2023-03-01T10:36:05;8.40;99.60
15357;DHT22;7778;48.792;9.260;2023-03-01T10:38:53;8.00;99.80
15357;DHT22;7778;48.792;9.260;2023-03-01T10:41:53;8.80;99.70
15357;DHT22;7778;48.792;9.260;2023-03-01T10:44:44;9.80;98.70
15357;DHT22;7778;48.792;9.260;2023-03-01T10:47:31;10.80;96.10
15357;DHT22;7778;48.792;9.260;2023-03-01T10:50:19;10.20;95.00
15357;DHT22;7778;48.792;9.260;2023-03-01T10:53:21;10.10;95.30
15357;DHT22;7778;48.792;9.260;2023-03-01T10:56:12;10.90;94.20
15357;DHT22;7778;48.792;9.260;2023-03-01T10:59:02;10.90;93.60
15357;DHT22;7778;48.792;9.260;2023-03-01T11:05:17;9.80;94.50
15357;DHT22;7778;48.792;9.260;2023-03-01T11:08:10;9.10;96.30
15357;DHT22;7778;48.792;9.260;2023-03-01T11:11:12;9.50;96.90
15357;DHT22;7778;48.792;9.260;2023-03-01T11:14:06;11.00;95.80
15357;DHT22;7778;48.792;9.260;2023-03-01T11:17:01;12.20;93.00
15357;DHT22;7778;48.792;9.260;2023-03-01T11:20:00;11.90;90.60
15357;DHT22;7778;48.792;9.260;2023-03-01T11:22:51;10.90;91.70
15357;DHT22;7778;48.792;9.260;2023-03-01T11:25:43;10.40;91.50
15357;DHT22;7778;48.792;9.260;2023-03-01T11:28:29;10.70;93.70
15357;DHT22;7778;48.792;9.260;2023-03-01T11:31:16;11.70;91.40
15357;DHT22;7778;48.792;9.260;2023-03-01T11:34:10;11.90;91.30
15357;DHT22;7778;48.792;9.260;2023-03-01T11:37:00;12.10;90.00
15357;DHT22;7778;48.792;9.260;2023-03-01T11:39:54;11.60;90.90
15357;DHT22;7778;48.792;9.260;2023-03-01T11:43:03;11.50;90.90
15357;DHT22;7778;48.792;9.260;2023-03-01T11:49:47;11.30;90.50
15357;DHT22;7778;48.792;9.260;2023-03-01T11:52:46;10.60;91.30
15357;DHT22;7778;48.792;9.260;2023-03-01T11:55:53;9.90;93.80
15357;DHT22;7778;48.792;9.260;2023-03-01T11:59:19;9.90;94.30
15357;DHT22;7778;48.792;9.260;2023-03-01T12:02:48;9.50;94.70
15357;DHT22;7778;48.792;9.260;2023-03-01T12:06:22;8.40;95.80
15357;DHT22;7778;48.792;9.260;2023-03-01T12:09:22;8.60;97.60
15357;DHT22;7778;48.792;9.260;2023-03-01T12:12:32;8.80;98.30
15357;DHT22;7778;48.792;9.260;2023-03-01T12:15:36;9.40;97.70
15357;DHT22;7778;48.792;9.260;2023-03-01T12:18:39;9.50;96.30
15357;DHT22;7778;48.792;9.260;2023-03-01T12:21:50;9.40;97.30
15357;DHT22;7778;48.792;9.260;2023-03-01T12:25:05;9.20;96.00
15357;DHT22;7778;48.792;9.260;2023-03-01T12:31:57;9.00;98.10
15357;DHT22;7778;48.792;9.260;2023-03-01T12:38:32;8.40;98.60
15357;DHT22;7778;48.792;9.260;2023-03-01T12:41:37;8.60;98.70
15357;DHT22;7778;48.792;9.260;2023-03-01T12:44:47;8.70;98.10
15357;DHT22;7778;48.792;9.260;2023-03-01T12:47:52;8.80;98.30
15357;DHT22;7778;48.792;9.260;2023-03-01T12:50:47;8.80;97.80
15357;DHT22;7778;48.792;9.260;2023-03-01T12:53:36;8.60;98.60
15357;DHT22;7778;48.792;9.260;2023-03-01T12:56:28;8.60;98.20
15357;DHT22;7778;48.792;9.260;2023-03-01T12:59:19;8.50;99.50
15357;DHT22;7778;48.792;9.260;2023-03-01T13:02:14;8.40;99.50
15357;DHT22;7778;48.792;9.260;2023-03-01T13:05:23;8.30;98.90
15357;DHT22;7778;48.792;9.260;2023-03-01T13:08:19;8.20;99.40
15357;DHT22;7778;48.792;9.260;2023-03-01T13:11:14;8.10;99.20
15357;DHT22;7778;48.792;9.260;2023-03-01T13:17:43;8.30;99.90
15357;DHT22;7778;48.792;9.260;2023-03-01T13:20:45;8.30;99.90
15357;DHT22;7778;48.792;9.260;2023-03-01T13:23:35;8.50;99.90
15357;DHT22;7778;48.792;9.260;2023-03-01T13:26:22;8.50;99.90
15357;DHT22;7778;48.792;9.260;2023-03-01T13:29:25;8.50;99.30
15357;DHT22;7778;48.792;9.260;2023-03-01T13:32:22;8.60;99.90
15357;DHT22;7778;48.792;9.260;2023-03-01T13:38:55;8.60;99.90
15357;DHT22;7778;48.792;9.260;2023-03-01T13:41:50;8.80;99.90
15357;DHT22;7778;48.792;9.260;2023-03-01T13:44:37;8.80;99.90
15357;DHT22;7778;48.792;9.260;2023-03-01T13:47:23;8.80;99.90
15357;DHT22;7778;48.792;9.260;2023-03-01T13:50:18;8.80;99.90
15357;DHT22;7778;48.792;9.260;2023-03-01T13:53:06;8.70;99.90
15357;DHT22;7778;48.792;9.260;2023-03-01T13:55:55;8.70;99.90
15357;DHT22;7778;48.792;9.260;2023-03-01T13:58:48;8.50;99.90
15357;DHT22;7778;48.792;9.260;2023-03-01T14:01:36;8.50;99.90
15357;DHT22;7778;48.792;9.260;2023-03-01T14:04:23;8.50;99.90
15357;DHT22;7778;48.792;9.260;2023-03-01T14:07:11;8.50;99.90
15357;DHT22;7778;48.792;9.260;2023-03-01T14:10:01;8.20;99.90
15357;DHT22;7778;48.792;9.260;2023-03-01T14:12:50;8.20;99.90
15357;DHT22;7778;48.792;9.260;2023-03-01T14:15:41;8.20;99.90
15357;DHT22;7778;48.792;9.260;2023-03-01T14:18:32;8.30;99.90
15357;DHT22;7778;48.792;9.260;2023-03-01T14:21:22;8.20;99.90
15357;DHT22;7778;48.792;9.260;2023-03-01T14:24:18;8.10;99.90
15357;DHT22;7778;48.792;9.260;2023-03-01T14:27:10;8.30;99.90
15357;DHT22;7778;48.792;9.260;2023-03-01T14:29:59;8.10;99.90
15357;DHT22;7778;48.792;9.260;2023-03-01T14:32:52;8.00;99.90
15357;DHT22;7778;48.792;9.260;2023-03-01T14:35:39;8.10;99.90
15357;DHT22;7778;48.792;9.260;2023-03-01T14:38:31;8.10;99.90
15357;DHT22;7778;48.792;9.260;2023-03-01T14:41:21;7.90;99.90
15357;DHT22;7778;48.792;9.260;2023-03-01T14:44:16;7.90;99.90
15357;DHT22;7778;48.792;9.260;2023-03-01T14:47:12;7.90;99.90
15357;DHT22;7778;48.792;9.260;2023-03-01T14:50:03;7.80;99.90
15357;DHT22;7778;48.792;9.260;2023-03-01T14:52:55;7.80;99.90
15357;DHT22;7778;48.792;9.260;2023-03-01T14:55:46;7.90;99.90
15357;DHT22;7778;48.792;9.260;2023-03-01T14:58:33;8.00;99.90
15357;DHT22;7778;48.792;9.260;2023-03-01T15:01:21;8.00;99.90
15357;DHT22;7778;48.792;9.260;2023-03-01T15:04:11;8.00;99.90
15357;DHT22;7778;48.792;9.260;2023-03-01T15:06:58;8.00;99.90
15357;DHT22;7778;48.792;9.260;2023-03-01T15:09:49;7.90;99.90
15357;DHT22;7778;48.792;9.260;2023-03-01T15:12:37;7.90;99.90
15357;DHT22;7778;48.792;9.260;2023-03-01T15:15:34;7.70;99.90
15357;DHT22;7778;48.792;9.260;2023-03-01T15:18:26;7.70;99.90
15357;DHT22;7778;48.792;9.260;2023-03-01T15:21:17;7.70;99.90
15357;DHT22;7778;48.792;9.260;2023-03-01T15:24:07;7.90;99.90
15357;DHT22;7778;48.792;9.260;2023-03-01T15:27:04;7.90;99.90
15357;DHT22;7778;48.792;9.260;2023-03-01T15:29:52;7.70;99.90
15357;DHT22;7778;48.792;9.260;2023-03-01T15:32:39;7.80;99.90
15357;DHT22;7778;48.792;9.260;2023-03-01T15:35:40;7.80;99.90
15357;DHT22;7778;48.792;9.260;2023-03-01T15:38:31;7.60;99.90
15357;DHT22;7778;48.792;9.260;2023-03-01T15:41:24;7.80;99.90
15357;DHT22;7778;48.792;9.260;2023-03-01T15:44:15;7.60;99.90
15357;DHT22;7778;48.792;9.260;2023-03-01T15:47:22;7.60;99.90
15357;DHT22;7778;48.792;9.260;2023-03-01T15:50:17;7.70;99.90
15357;DHT22;7778;48.792;9.260;2023-03-01T15:53:12;7.40;99.90
15357;DHT22;7778;48.792;9.260;2023-03-01T15:55:59;7.40;99.90
15357;DHT22;7778;48.792;9.260;2023-03-01T15:58:48;7.30;99.90
15357;DHT22;7778;48.792;9.260;2023-03-01T16:01:34;7.30;99.90
15357;DHT22;7778;48.792;9.260;2023-03-01T16:04:21;7.30;99.90
15357;DHT22;7778;48.792;9.260;2023-03-01T16:07:09;7.30;99.90
15357;DHT22;7778;48.792;9.260;2023-03-01T16:09:56;7.20;99.90
15357;DHT22;7778;48.792;9.260;2023-03-01T16:12:42;7.20;99.90
15357;DHT22;7778;48.792;9.260;2023-03-01T16:15:29;7.10;99.90
15357;DHT22;7778;48.792;9.260;2023-03-01T16:18:16;7.10;99.90
15357;DHT22;7778;48.792;9.260;2023-03-01T16:21:01;7.20;99.90
15357;DHT22;7778;48.792;9.260;2023-03-01T16:23:47;7.00;99.90
15357;DHT22;7778;48.792;9.260;2023-03-01T16:26:36;7.00;99.90
15357;DHT22;7778;48.792;9.260;2023-03-01T16:29:22;6.90;99.90
15357;DHT22;7778;48.792;9.260;2023-03-01T16:32:08;6.90;99.90
15357;DHT22;7778;48.792;9.260;2023-03-01T16:34:53;6.80;99.90
15357;DHT22;7778;48.792;9.260;2023-03-01T16:37:40;6.80;99.90
15357;DHT22;7778;48.792;9.260;2023-03-01T16:40:27;6.70;99.90
15357;DHT22;7778;48.792;9.260;2023-03-01T16:43:15;6.60;99.90
15357;DHT22;7778;48.792;9.260;2023-03-01T16:46:01;6.50;99.90
15357;DHT22;7778;48.792;9.260;2023-03-01T16:48:49;6.60;99.90
15357;DHT22;7778;48.792;9.260;2023-03-01T16:51:35;6.80;99.90
15357;DHT22;7778;48.792;9.260;2023-03-01T16:54:21;6.50;99.90
15357;DHT22;7778;48.792;9.260;2023-03-01T16:57:07;6.40;99.90
15357;DHT22;7778;48.792;9.260;2023-03-01T16:59:54;6.30;99.90
15357;DHT22;7778;48.792;9.260;2023-03-01T17:02:40;6.20;99.90
15357;DHT22;7778;48.792;9.260;2023-03-01T17:05:26;6.20;99.90
15357;DHT22;7778;48.792;9.260;2023-03-01T17:08:11;6.20;99.90
15357;DHT22;7778;48.792;9.260;2023-03-01T17:11:03;6.00;99.90
15357;DHT22;7778;48.792;9.260;2023-03-01T17:13:51;6.10;99.90
15357;DHT22;7778;48.792;9.260;2023-03-01T17:16:38;6.00;99.90
15357;DHT22;7778;48.792;9.260;2023-03-01T17:19:24;5.90;99.90
15357;DHT22;7778;48.792;9.260;2023-03-01T17:22:10;5.80;99.90
15357;DHT22;7778;48.792;9.260;2023-03-01T17:24:57;6.00;99.90
15357;DHT22;7778;48.792;9.260;2023-03-01T17:27:42;5.90;99.90
15357;DHT22;7778;48.792;9.260;2023-03-01T17:30:28;5.80;99.90
15357;DHT22;7778;48.792;9.260;2023-03-01T17:33:15;5.60;99.90
15357;DHT22;7778;48.792;9.260;2023-03-01T17:36:02;5.60;99.90
15357;DHT22;7778;48.792;9.260;2023-03-01T17:38:48;5.50;99.90
15357;DHT22;7778;48.792;9.260;2023-03-01T17:41:34;5.50;99.90
15357;DHT22;7778;48.792;9.260;2023-03-01T17:44:19;5.60;99.90
15357;DHT22;7778;48.792;9.260;2023-03-01T17:47:05;5.30;99.90
15357;DHT22;7778;48.792;9.260;2023-03-01T17:49:52;5.30;99.90
15357;DHT22;7778;48.792;9.260;2023-03-01T17:52:38;5.40;99.90
15357;DHT22;7778;48.792;9.260;2023-03-01T17:55:25;5.30;99.90
15357;DHT22;7778;48.792;9.260;2023-03-01T17:58:12;5.00;99.90
15357;DHT22;7778;48.792;9.260;2023-03-01T18:01:07;4.90;99.90
15357;DHT22;7778;48.792;9.260;2023-03-01T18:03:54;4.80;99.90
15357;DHT22;7778;48.792;9.260;2023-03-01T18:06:41;4.80;99.90
15357;DHT22;7778;48.792;9.260;2023-03-01T18:09:27;4.50;99.90
15357;DHT22;7778;48.792;9.260;2023-03-01T18:12:14;4.40;99.90
15357;DHT22;7778;48.792;9.260;2023-03-01T18:15:01;4.40;99.90
15357;DHT22;7778;48.792;9.260;2023-03-01T18:17:46;4.60;99.90
15357;DHT22;7778;48.792;9.260;2023-03-01T18:20:33;4.30;99.90
15357;DHT22;7778;48.792;9.260;2023-03-01T18:23:20;4.10;99.90
15357;DHT22;7778;48.792;9.260;2023-03-01T18:26:08;4.10;99.90
15357;DHT22;7778;48.792;9.260;2023-03-01T18:28:56;4.00;99.90
15357;DHT22;7778;48.792;9.260;2023-03-01T18:31:44;4.00;99.90
15357;DHT22;7778;48.792;9.260;2023-03-01T18:34:30;4.00;99.90
15357;DHT22;7778;48.792;9.260;2023-03-01T18:37:16;3.90;99.90
15357;DHT22;7778;48.792;9.260;2023-03-01T18:40:04;4.00;99.90
15357;DHT22;7778;48.792;9.260;2023-03-01T18:42:50;4.00;99.90
15357;DHT22;7778;48.792;9.260;2023-03-01T18:45:46;4.00;99.90
15357;DHT22;7778;48.792;9.260;2023-03-01T18:48:32;4.00;99.90
15357;DHT22;7778;48.792;9.260;2023-03-01T18:51:21;4.00;99.90
15357;DHT22;7778;48.792;9.260;2023-03-01T18:54:10;4.00;99.90
15357;DHT22;7778;48.792;9.260;2023-03-01T18:56:58;4.00;99.90
15357;DHT22;7778;48.792;9.260;2023-03-01T18:59:44;3.90;99.90
15357;DHT22;7778;48.792;9.260;2023-03-01T19:02:29;3.90;99.90